createdAt,value
2023-04-28T00:00:08.383Z,91.75
2023-04-28T00:02:27.912Z,90.84
2023-04-28T00:04:45.072Z,90.72
2023-04-28T00:07:02.182Z,91.50
2023-04-28T00:09:20.265Z,91.69
2023-04-28T00:11:38.426Z,90.78
2023-04-28T00:13:55.344Z,90.95
2023-04-28T00:16:12.405Z,91.52
2023-04-28T00:18:29.368Z,92.56
2023-04-28T00:20:46.446Z,92.31
2023-04-28T00:23:04.696Z,91.66
2023-04-28T00:25:22.179Z,91.20
2023-04-28T00:27:39.481Z,91.65
2023-04-28T00:29:57.783Z,92.12
2023-04-28T00:32:15.743Z,92.58
2023-04-28T00:34:32.799Z,93.03
2023-04-28T00:36:50.064Z,91.33
2023-04-28T00:39:07.335Z,93.19
2023-04-28T00:41:24.370Z,93.12
2023-04-28T00:43:41.633Z,93.02
2023-04-28T00:45:58.698Z,93.48
2023-04-28T00:48:15.769Z,93.64
2023-04-28T00:50:32.808Z,92.75
2023-04-28T00:52:49.744Z,92.75
2023-04-28T00:55:06.988Z,92.96
2023-04-28T00:57:24.925Z,94.28
2023-04-28T00:59:41.979Z,93.11
2023-04-28T01:01:59.020Z,93.75
2023-04-28T01:04:16.406Z,93.16
2023-04-28T01:06:34.097Z,93.29
2023-04-28T01:08:51.157Z,93.88
2023-04-28T01:11:08.460Z,92.90
2023-04-28T01:13:25.508Z,93.50
2023-04-28T01:15:42.507Z,93.74
2023-04-28T01:17:59.768Z,93.78
2023-04-28T01:20:16.831Z,92.68
2023-04-28T01:22:34.102Z,92.97
2023-04-28T01:24:51.443Z,91.71
2023-04-28T01:27:08.468Z,92.45
2023-04-28T01:29:25.692Z,92.32
2023-04-28T01:31:43.636Z,93.82
2023-04-28T01:34:00.921Z,93.76
2023-04-28T01:36:17.932Z,93.21
2023-04-28T01:38:35.149Z,94.22
2023-04-28T01:40:52.103Z,93.68
2023-04-28T01:43:10.355Z,94.18
2023-04-28T01:45:27.430Z,94.74
2023-04-28T01:47:44.513Z,94.55
2023-04-28T01:50:01.533Z,94.07
2023-04-28T01:52:18.589Z,94.20
2023-04-28T01:54:35.574Z,94.96
2023-04-28T01:56:52.586Z,93.61
2023-04-28T01:59:09.486Z,93.94
2023-04-28T02:01:26.489Z,93.52
2023-04-28T02:03:44.851Z,93.47
2023-04-28T02:06:02.039Z,94.29
2023-04-28T02:08:19.252Z,93.90
2023-04-28T02:10:36.233Z,94.60
2023-04-28T02:12:53.116Z,94.06
2023-04-28T02:15:10.401Z,93.81
2023-04-28T02:17:28.675Z,94.49
2023-04-28T02:19:45.827Z,95.08
2023-04-28T02:22:02.834Z,95.35
2023-04-28T02:24:19.856Z,94.79
2023-04-28T02:26:36.880Z,94.75
2023-04-28T02:28:54.925Z,94.15
2023-04-28T02:31:12.228Z,94.13
2023-04-28T02:33:29.226Z,94.28
2023-04-28T02:35:46.200Z,93.66
2023-04-28T02:38:03.262Z,94.57
2023-04-28T02:40:20.289Z,93.90
2023-04-28T02:42:38.398Z,94.67
2023-04-28T02:44:55.456Z,94.41
2023-04-28T02:47:12.787Z,94.25
2023-04-28T02:49:29.921Z,95.58
2023-04-28T02:51:46.869Z,95.42
2023-04-28T02:54:04.810Z,94.68
2023-04-28T02:56:22.071Z,95.14
2023-04-28T02:58:39.088Z,95.47
2023-04-28T03:00:56.196Z,94.19
2023-04-28T03:03:14.510Z,94.30
2023-04-28T03:05:32.063Z,94.27
2023-04-28T03:07:48.976Z,94.97
2023-04-28T03:10:06.385Z,94.32
2023-04-28T03:12:23.388Z,95.54
2023-04-28T03:14:41.362Z,94.91
2023-04-28T03:16:58.403Z,95.28
2023-04-28T03:19:15.644Z,95.52
2023-04-28T03:21:32.776Z,94.29
2023-04-28T03:23:50.154Z,94.66
2023-04-28T03:26:07.190Z,93.31
2023-04-28T03:28:24.084Z,94.20
2023-04-28T03:30:41.129Z,93.95
2023-04-28T03:32:59.252Z,94.67
2023-04-28T03:35:16.620Z,94.96
2023-04-28T03:37:33.590Z,94.41
2023-04-28T03:39:51.412Z,95.02
2023-04-28T03:42:08.484Z,95.02
2023-04-28T03:44:25.734Z,95.49
2023-04-28T03:46:43.114Z,94.86
2023-04-28T03:49:01.373Z,95.95
2023-04-28T03:51:18.491Z,95.46
2023-04-28T03:53:35.961Z,95.78
2023-04-28T03:55:53.069Z,96.05
2023-04-28T03:58:09.979Z,96.43
2023-04-28T04:00:27.046Z,95.12
2023-04-28T04:02:44.427Z,96.25
2023-04-28T04:05:02.318Z,96.39
2023-04-28T04:07:20.509Z,95.35
2023-04-28T04:09:37.829Z,96.18
2023-04-28T04:11:54.921Z,96.33
2023-04-28T04:14:13.294Z,96.58
2023-04-28T04:16:30.527Z,95.81
2023-04-28T04:18:48.063Z,96.32
2023-04-28T04:21:06.251Z,95.93
2023-04-28T04:23:23.298Z,96.90
2023-04-28T04:25:40.916Z,96.68
2023-04-28T04:27:58.192Z,95.91
2023-04-28T04:30:15.288Z,95.43
2023-04-28T04:32:32.584Z,96.24
2023-04-28T04:34:49.850Z,94.88
2023-04-28T04:37:07.042Z,95.97
2023-04-28T04:39:24.053Z,96.88
2023-04-28T04:41:41.358Z,96.25
2023-04-28T04:43:58.687Z,97.06
2023-04-28T04:46:16.182Z,97.18
2023-04-28T04:48:33.783Z,96.12
2023-04-28T04:50:50.831Z,96.62
2023-04-28T04:53:10.589Z,97.19
2023-04-28T04:55:30.641Z,96.14
2023-04-28T04:57:47.533Z,97.25
2023-04-28T05:00:04.376Z,96.21
2023-04-28T05:02:21.809Z,96.63
2023-04-28T05:04:39.214Z,96.83
2023-04-28T05:06:56.638Z,97.17
2023-04-28T05:09:13.707Z,97.36
2023-04-28T05:11:30.808Z,97.45
2023-04-28T05:13:48.113Z,97.34
2023-04-28T05:16:05.135Z,96.50
2023-04-28T05:18:22.075Z,96.06
2023-04-28T05:20:39.385Z,97.09
2023-04-28T05:22:56.450Z,96.94
2023-04-28T05:25:14.339Z,96.83
2023-04-28T05:27:31.279Z,96.41
2023-04-28T05:29:48.337Z,96.06
2023-04-28T05:32:05.691Z,96.47
2023-04-28T05:34:24.007Z,96.76
2023-04-28T05:36:41.263Z,96.77
2023-04-28T05:38:58.731Z,97.49
2023-04-28T05:41:18.656Z,98.35
2023-04-28T05:43:35.654Z,97.92
2023-04-28T05:45:52.911Z,97.29
2023-04-28T05:48:10.084Z,96.48
2023-04-28T05:50:27.197Z,97.01
2023-04-28T05:52:45.162Z,97.07
2023-04-28T05:55:02.251Z,97.11
2023-04-28T05:57:19.159Z,97.36
2023-04-28T05:59:36.457Z,96.88
2023-04-28T06:01:53.759Z,96.51
2023-04-28T06:04:11.059Z,98.00
2023-04-28T06:06:29.577Z,97.80
2023-04-28T06:08:47.132Z,97.08
2023-04-28T06:11:04.149Z,97.74
2023-04-28T06:13:22.002Z,97.46
2023-04-28T06:15:39.362Z,97.32
2023-04-28T06:17:56.438Z,97.91
2023-04-28T06:20:13.598Z,97.92
2023-04-28T06:22:30.677Z,97.96
2023-04-28T06:24:47.921Z,97.88
2023-04-28T06:27:06.045Z,97.48
2023-04-28T06:29:23.263Z,98.23
2023-04-28T06:31:41.641Z,97.85
2023-04-28T06:33:58.566Z,97.42
2023-04-28T06:36:15.870Z,97.04
2023-04-28T06:38:33.903Z,96.26
2023-04-28T06:40:51.222Z,96.15
2023-04-28T06:43:08.562Z,96.36
2023-04-28T06:45:25.606Z,96.51
2023-04-28T06:47:43.901Z,96.06
2023-04-28T06:50:01.173Z,96.13
2023-04-28T06:52:19.117Z,96.80
2023-04-28T06:54:37.023Z,95.29
2023-04-28T06:56:53.994Z,95.58
2023-04-28T06:59:11.660Z,95.20
2023-04-28T07:01:29.081Z,95.53
2023-04-28T07:03:47.429Z,94.82
2023-04-28T07:06:04.858Z,94.56
2023-04-28T07:08:23.295Z,93.82
2023-04-28T07:10:40.302Z,93.63
2023-04-28T07:12:57.745Z,94.97
2023-04-28T07:15:15.013Z,94.02
2023-04-28T07:17:31.974Z,92.75
2023-04-28T07:19:49.027Z,93.60
2023-04-28T07:22:06.318Z,93.77
2023-04-28T07:24:23.615Z,94.59
2023-04-28T07:26:40.660Z,92.38
2023-04-28T07:28:57.992Z,92.91
2023-04-28T07:31:16.279Z,94.01
2023-04-28T07:33:33.574Z,92.99
2023-04-28T07:35:50.808Z,92.70
2023-04-28T07:38:08.041Z,92.34
2023-04-28T07:40:26.103Z,91.80
2023-04-28T07:42:43.420Z,92.42
2023-04-28T07:45:00.644Z,91.65
2023-04-28T07:47:17.596Z,92.83
2023-04-28T07:49:34.847Z,91.72
2023-04-28T07:51:52.087Z,92.10
2023-04-28T07:54:09.373Z,88.31
2023-04-28T07:56:26.394Z,90.31
2023-04-28T07:58:43.681Z,90.24
2023-04-28T08:01:01.713Z,90.28
2023-04-28T08:03:20.025Z,88.62
2023-04-28T08:05:37.324Z,90.11
2023-04-28T08:07:54.409Z,89.87
2023-04-28T08:10:11.451Z,89.23
2023-04-28T08:12:28.648Z,90.30
2023-04-28T08:14:46.676Z,89.14
2023-04-28T08:17:03.986Z,91.68
2023-04-28T08:19:21.268Z,90.74
2023-04-28T08:21:38.536Z,90.38
2023-04-28T08:23:55.544Z,91.86
2023-04-28T08:26:12.865Z,92.50
2023-04-28T08:28:30.890Z,91.03
2023-04-28T08:30:48.126Z,91.61
2023-04-28T08:33:07.297Z,90.75
2023-04-28T08:35:24.693Z,92.51
2023-04-28T08:37:41.672Z,91.83
2023-04-28T08:39:58.673Z,92.19
2023-04-28T08:42:15.712Z,92.33
2023-04-28T08:44:32.987Z,93.13
2023-04-28T08:46:50.425Z,91.96
2023-04-28T08:49:07.528Z,92.12
2023-04-28T08:51:24.855Z,92.39
2023-04-28T08:54:06.123Z,94.97
2023-04-28T08:56:19.129Z,91.73
2023-04-28T08:58:36.330Z,93.31
2023-04-28T09:00:53.302Z,94.13
2023-04-28T09:03:10.517Z,94.27
2023-04-28T09:05:27.891Z,94.05
2023-04-28T09:07:46.081Z,94.38
2023-04-28T09:10:03.009Z,93.70
2023-04-28T09:12:19.974Z,91.70
2023-04-28T09:14:36.796Z,94.45
2023-04-28T09:16:53.864Z,94.22
2023-04-28T09:19:10.908Z,93.62
2023-04-28T09:21:28.819Z,92.47
2023-04-28T09:23:45.763Z,93.72
2023-04-28T09:26:02.689Z,94.03
2023-04-28T09:28:19.606Z,92.44
2023-04-28T09:30:36.674Z,94.96
2023-04-28T09:32:53.687Z,93.33
2023-04-28T09:35:10.651Z,93.08
2023-04-28T09:37:27.908Z,91.44
2023-04-28T09:39:44.985Z,90.86
2023-04-28T09:42:01.924Z,90.67
2023-04-28T09:44:19.567Z,86.73
2023-04-28T09:46:37.126Z,87.28
2023-04-28T09:48:54.261Z,85.67
2023-04-28T09:51:13.056Z,85.40
2023-04-28T09:53:30.322Z,86.40
2023-04-28T09:55:47.609Z,85.12
2023-04-28T09:58:04.867Z,84.84
2023-04-28T10:00:21.898Z,84.26
2023-04-28T10:02:43.866Z,85.49
2023-04-28T10:05:01.531Z,85.87
2023-04-28T10:07:18.746Z,86.95
2023-04-28T10:09:36.034Z,88.75
2023-04-28T10:11:54.063Z,89.12
2023-04-28T10:14:11.315Z,88.70
2023-04-28T10:16:28.475Z,89.03
2023-04-28T10:18:45.788Z,90.51
2023-04-28T10:21:02.866Z,89.32
2023-04-28T10:23:19.776Z,88.82
2023-04-28T10:25:37.283Z,90.08
2023-04-28T10:27:55.247Z,90.72
2023-04-28T10:30:22.895Z,90.82
2023-04-28T10:32:43.114Z,90.97
2023-04-28T10:35:00.203Z,93.27
2023-04-28T10:37:17.451Z,93.62
2023-04-28T10:39:35.467Z,93.88
2023-04-28T10:41:53.352Z,94.48
2023-04-28T10:44:10.279Z,93.85
2023-04-28T10:46:27.254Z,95.17
2023-04-28T10:48:44.302Z,94.95
2023-04-28T10:51:01.283Z,95.58
2023-04-28T10:53:21.125Z,95.13
2023-04-28T10:55:38.044Z,95.26
2023-04-28T10:57:55.245Z,95.78
2023-04-28T11:00:12.594Z,94.65
2023-04-28T11:02:30.004Z,94.74
2023-04-28T11:04:47.510Z,94.88
2023-04-28T11:07:04.907Z,94.15
2023-04-28T11:09:21.922Z,94.34
2023-04-28T11:11:39.023Z,93.58
2023-04-28T11:13:56.400Z,93.74
2023-04-28T11:16:13.507Z,92.93
2023-04-28T11:18:30.811Z,93.40
2023-04-28T11:20:47.813Z,92.65
2023-04-28T11:23:06.065Z,91.48
2023-04-28T11:25:23.003Z,90.28
2023-04-28T11:27:40.231Z,90.19
2023-04-28T11:29:57.300Z,91.04
2023-04-28T11:32:14.327Z,91.24
2023-04-28T11:34:31.406Z,92.79
2023-04-28T11:36:48.456Z,93.22
2023-04-28T11:39:06.504Z,92.32
2023-04-28T11:41:23.581Z,91.80
2023-04-28T11:43:47.424Z,90.52
2023-04-28T11:46:04.958Z,91.10
2023-04-28T11:48:21.856Z,91.48
2023-04-28T11:50:38.899Z,91.00
2023-04-28T11:52:56.833Z,89.67
2023-04-28T11:55:14.087Z,90.87
2023-04-28T11:57:31.094Z,89.95
2023-04-28T11:59:49.065Z,90.14
2023-04-28T12:02:06.656Z,90.44
2023-04-28T12:04:23.959Z,90.57
2023-04-28T12:06:40.928Z,90.32
2023-04-28T12:08:57.918Z,93.86
2023-04-28T12:11:18.345Z,92.35
2023-04-28T12:13:36.688Z,92.34
2023-04-28T12:15:54.023Z,93.80
2023-04-28T12:18:11.386Z,91.32
2023-04-28T12:20:28.434Z,93.35
2023-04-28T12:22:46.798Z,93.82
2023-04-28T12:25:03.905Z,94.05
2023-04-28T12:27:20.960Z,94.74
2023-04-28T12:29:37.862Z,95.02
2023-04-28T12:31:54.876Z,95.48
2023-04-28T12:34:12.152Z,94.66
2023-04-28T12:36:29.047Z,95.65
2023-04-28T12:38:46.242Z,95.85
2023-04-28T12:41:03.132Z,93.79
2023-04-28T12:43:20.401Z,90.56
2023-04-28T12:45:38.882Z,89.27
2023-04-28T12:47:56.180Z,90.34
2023-04-28T12:50:14.425Z,91.61
2023-04-28T12:52:31.849Z,92.45
2023-04-28T12:54:48.853Z,93.17
2023-04-28T12:57:05.816Z,91.78
2023-04-28T12:59:23.023Z,93.61
2023-04-28T13:01:40.150Z,94.74
2023-04-28T13:03:57.496Z,93.34
2023-04-28T13:06:15.563Z,95.20
2023-04-28T13:08:32.592Z,90.21
2023-04-28T13:10:50.926Z,90.05
2023-04-28T13:13:07.921Z,87.84
2023-04-28T13:15:24.996Z,88.03
2023-04-28T13:17:42.323Z,84.23
2023-04-28T13:19:59.376Z,83.73
2023-04-28T13:22:16.397Z,82.12
2023-04-28T13:24:33.580Z,79.03
2023-04-28T13:26:51.046Z,75.04
2023-04-28T13:29:08.405Z,78.21
2023-04-28T13:31:25.441Z,75.26
2023-04-28T13:33:42.736Z,72.24
2023-04-28T13:35:59.977Z,74.21
2023-04-28T13:38:16.998Z,76.41
2023-04-28T13:40:34.023Z,71.20
2023-04-28T13:42:51.267Z,73.71
2023-04-28T13:45:08.503Z,72.76
2023-04-28T13:47:25.616Z,70.90
2023-04-28T13:49:42.626Z,69.97
2023-04-28T13:51:59.654Z,71.57
2023-04-28T13:54:16.725Z,72.67
2023-04-28T13:56:33.870Z,73.86
2023-04-28T13:58:51.315Z,74.55
2023-04-28T14:01:08.365Z,75.35
2023-04-28T14:03:25.726Z,75.42
2023-04-28T14:05:49.553Z,77.64
2023-04-28T14:08:07.173Z,79.50
2023-04-28T14:10:24.097Z,79.13
2023-04-28T14:12:41.022Z,81.41
2023-04-28T14:14:57.979Z,80.76
2023-04-28T14:17:15.250Z,82.25
2023-04-28T14:19:32.244Z,84.85
2023-04-28T14:21:49.251Z,85.28
2023-04-28T14:24:06.170Z,86.08
2023-04-28T14:26:23.087Z,88.19
2023-04-28T14:28:40.155Z,86.72
2023-04-28T14:30:58.169Z,88.90
2023-04-28T14:33:16.229Z,90.20
2023-04-28T14:35:34.455Z,90.71
2023-04-28T14:37:51.493Z,89.94
2023-04-28T14:40:08.603Z,86.18
2023-04-28T14:42:26.008Z,84.51
2023-04-28T14:44:43.248Z,83.23
2023-04-28T14:47:00.517Z,83.97
2023-04-28T14:49:17.572Z,82.67
2023-04-28T14:51:34.884Z,79.13
2023-04-28T14:53:51.863Z,81.17
2023-04-28T14:56:18.656Z,78.98
2023-04-28T14:58:37.806Z,77.47
2023-04-28T15:00:54.879Z,77.16
2023-04-28T15:03:12.050Z,77.55
2023-04-28T15:05:30.845Z,76.87
2023-04-28T15:07:47.824Z,78.29
2023-04-28T15:10:05.843Z,73.79
2023-04-28T15:12:23.119Z,73.83
2023-04-28T15:14:40.047Z,68.78
2023-04-28T15:16:57.283Z,66.33
2023-04-28T15:19:14.595Z,69.61
2023-04-28T15:21:31.619Z,67.58
2023-04-28T15:23:48.890Z,68.07
2023-04-28T15:26:05.781Z,67.59
2023-04-28T15:28:23.060Z,68.65
2023-04-28T15:30:43.118Z,66.82
2023-04-28T15:33:00.245Z,67.70
2023-04-28T15:35:17.571Z,64.15
2023-04-28T15:37:34.434Z,65.15
2023-04-28T15:39:51.272Z,65.14
2023-04-28T15:42:08.309Z,68.18
2023-04-28T15:44:25.335Z,65.60
2023-04-28T15:46:42.286Z,66.42
2023-04-28T15:48:59.331Z,66.89
2023-04-28T15:51:16.376Z,67.72
2023-04-28T15:53:33.626Z,70.96
2023-04-28T15:55:50.960Z,73.45
2023-04-28T15:58:07.998Z,75.47
2023-04-28T16:00:25.067Z,75.96
2023-04-28T16:02:42.221Z,75.46
2023-04-28T16:04:59.402Z,76.57
2023-04-28T16:07:16.403Z,76.72
2023-04-28T16:09:33.474Z,77.81
2023-04-28T16:11:50.570Z,76.78
2023-04-28T16:14:07.510Z,78.21
2023-04-28T16:16:24.524Z,78.52
2023-04-28T16:18:41.543Z,79.16
2023-04-28T16:20:58.513Z,80.78
2023-04-28T16:23:15.851Z,82.86
2023-04-28T16:25:33.078Z,80.15
2023-04-28T16:27:50.121Z,79.23
2023-04-28T16:30:08.030Z,79.55
2023-04-28T16:32:25.106Z,81.19
2023-04-28T16:34:43.194Z,82.62
2023-04-28T16:37:00.077Z,83.86
2023-04-28T16:39:17.380Z,84.39
2023-04-28T16:41:34.741Z,81.70
2023-04-28T16:43:51.688Z,75.26
2023-04-28T16:46:09.591Z,75.31
2023-04-28T16:48:26.651Z,74.57
2023-04-28T16:50:43.947Z,74.02
2023-04-28T16:53:00.873Z,75.04
2023-04-28T16:55:18.107Z,74.89
2023-04-28T16:57:35.326Z,73.20
2023-04-28T16:59:53.414Z,72.55
2023-04-28T17:02:10.729Z,72.26
2023-04-28T17:04:28.174Z,71.32
2023-04-28T17:06:46.660Z,71.23
2023-04-28T17:09:03.932Z,71.35
2023-04-28T17:11:22.213Z,73.33
2023-04-28T17:13:39.173Z,74.53
2023-04-28T17:15:56.447Z,75.99
2023-04-28T17:18:14.713Z,77.88
2023-04-28T17:20:31.636Z,77.53
2023-04-28T17:22:48.687Z,79.56
2023-04-28T17:25:06.007Z,80.19
2023-04-28T17:27:22.952Z,79.48
2023-04-28T17:29:40.951Z,81.24
2023-04-28T17:31:57.946Z,82.03
2023-04-28T17:34:15.050Z,81.12
2023-04-28T17:36:32.093Z,81.02
2023-04-28T17:38:49.105Z,83.20
2023-04-28T17:41:06.161Z,84.96
2023-04-28T17:43:23.475Z,84.14
2023-04-28T17:45:40.824Z,84.69
2023-04-28T17:47:58.712Z,85.64
2023-04-28T17:50:15.790Z,84.65
2023-04-28T17:52:32.836Z,84.82
2023-04-28T17:54:50.342Z,84.83
2023-04-28T17:57:07.731Z,84.72
2023-04-28T17:59:25.612Z,84.96
2023-04-28T18:01:42.997Z,86.94
2023-04-28T18:04:00.427Z,86.98
2023-04-28T18:06:17.317Z,87.13
2023-04-28T18:08:34.317Z,89.37
2023-04-28T18:10:51.352Z,87.20
2023-04-28T18:13:08.454Z,87.40
2023-04-28T18:15:25.807Z,88.92
2023-04-28T18:17:42.790Z,90.09
2023-04-28T18:19:59.855Z,90.75
2023-04-28T18:22:16.798Z,90.06
2023-04-28T18:24:34.815Z,89.71
2023-04-28T18:26:51.838Z,91.00
2023-04-28T18:29:09.878Z,90.28
2023-04-28T18:31:26.852Z,91.71
2023-04-28T18:33:45.152Z,90.73
2023-04-28T18:36:02.377Z,91.04
2023-04-28T18:38:20.423Z,92.50
2023-04-28T18:40:37.790Z,92.74
2023-04-28T18:42:55.919Z,93.09
2023-04-28T18:45:13.316Z,92.02
2023-04-28T18:47:30.616Z,92.96
2023-04-28T18:49:47.810Z,92.63
2023-04-28T18:52:05.236Z,93.04
2023-04-28T18:54:22.185Z,92.86
2023-04-28T18:56:39.263Z,92.75
2023-04-28T18:58:56.310Z,92.95
2023-04-28T19:01:13.401Z,92.96
2023-04-28T19:03:31.534Z,92.44
2023-04-28T19:05:48.782Z,93.43
2023-04-28T19:08:10.116Z,92.66
2023-04-28T19:10:28.934Z,92.48
2023-04-28T19:12:45.922Z,93.31
2023-04-28T19:15:03.050Z,92.45
2023-04-28T19:17:20.135Z,92.88
2023-04-28T19:19:37.173Z,93.66
2023-04-28T19:21:54.093Z,94.33
2023-04-28T19:24:11.194Z,93.83
2023-04-28T19:26:28.158Z,93.36
2023-04-28T19:28:45.152Z,92.71
2023-04-28T19:31:02.388Z,94.65
2023-04-28T19:33:20.426Z,93.14
2023-04-28T19:35:38.552Z,93.39
2023-04-28T19:37:55.837Z,93.80
2023-04-28T19:40:13.179Z,93.70
2023-04-28T19:42:30.123Z,93.77
2023-04-28T19:44:48.169Z,93.72
2023-04-28T19:47:05.339Z,94.30
2023-04-28T19:49:22.381Z,92.81
2023-04-28T19:51:39.677Z,92.98
2023-04-28T19:53:56.724Z,92.82
2023-04-28T19:56:13.724Z,95.14
2023-04-28T19:58:30.664Z,94.25
2023-04-28T20:00:47.607Z,94.60
2023-04-28T20:03:04.630Z,95.43
2023-04-28T20:05:23.072Z,94.13
2023-04-28T20:07:40.318Z,95.26
2023-04-28T20:09:57.633Z,95.63
2023-04-28T20:12:14.677Z,95.89
2023-04-28T20:14:31.525Z,94.32
2023-04-28T20:16:48.816Z,95.62
2023-04-28T20:19:05.728Z,94.72
2023-04-28T20:21:22.690Z,95.39
2023-04-28T20:23:40.991Z,94.46
2023-04-28T20:25:57.953Z,94.71
2023-04-28T20:28:15.231Z,95.59
2023-04-28T20:30:33.559Z,94.87
2023-04-28T20:32:50.538Z,94.48
2023-04-28T20:35:07.636Z,96.29
2023-04-28T20:37:24.957Z,94.33
2023-04-28T20:39:42.052Z,94.53
2023-04-28T20:41:58.974Z,94.23
2023-04-28T20:44:16.034Z,96.72
2023-04-28T20:46:33.317Z,96.71
2023-04-28T20:48:50.381Z,95.83
2023-04-28T20:51:07.665Z,96.35
2023-04-28T20:53:24.616Z,95.50
2023-04-28T20:55:41.958Z,96.02
2023-04-28T20:57:58.931Z,95.69
2023-04-28T21:00:16.040Z,95.50
2023-04-28T21:02:34.428Z,96.37
2023-04-28T21:04:51.638Z,96.43
2023-04-28T21:07:08.677Z,96.07
2023-04-28T21:09:25.731Z,96.53
2023-04-28T21:11:42.640Z,96.57
2023-04-28T21:13:59.736Z,96.40
2023-04-28T21:16:20.234Z,95.50
2023-04-28T21:18:38.115Z,96.71
2023-04-28T21:20:56.187Z,95.28
2023-04-28T21:23:13.272Z,95.27
2023-04-28T21:25:30.638Z,95.82
2023-04-28T21:27:47.643Z,95.79
2023-04-28T21:30:05.569Z,95.60
2023-04-28T21:32:23.669Z,94.88
2023-04-28T21:34:41.083Z,94.73
2023-04-28T21:36:58.193Z,95.20
2023-04-28T21:39:16.439Z,95.70
2023-04-28T21:41:33.377Z,95.78
2023-04-28T21:43:50.457Z,95.40
2023-04-28T21:46:07.583Z,95.23
2023-04-28T21:48:25.919Z,95.21
2023-04-28T21:50:42.932Z,95.72
2023-04-28T21:53:00.222Z,95.36
2023-04-28T21:55:17.493Z,95.57
2023-04-28T21:57:35.614Z,95.53
2023-04-28T21:59:53.054Z,95.11
2023-04-28T22:02:10.176Z,95.16
2023-04-28T22:04:28.322Z,95.61
2023-04-28T22:06:45.355Z,94.96
2023-04-28T22:09:03.671Z,95.33
2023-04-28T22:11:20.659Z,95.01
2023-04-28T22:13:37.907Z,95.11
2023-04-28T22:15:55.243Z,94.68
2023-04-28T22:18:12.695Z,95.03
2023-04-28T22:20:29.777Z,95.05
2023-04-28T22:22:46.987Z,95.11
2023-04-28T22:25:04.197Z,95.28
2023-04-28T22:27:21.498Z,95.06
2023-04-28T22:29:38.706Z,95.50
2023-04-28T22:31:55.686Z,95.01
2023-04-28T22:34:13.048Z,95.09
2023-04-28T22:36:31.376Z,94.94
2023-04-28T22:38:48.737Z,94.84
2023-04-28T22:41:05.799Z,94.74
2023-04-28T22:43:22.687Z,94.86
2023-04-28T22:45:40.001Z,95.01
2023-04-28T22:47:57.035Z,95.14
2023-04-28T22:50:14.127Z,95.04
2023-04-28T22:52:32.057Z,95.31
2023-04-28T22:54:49.029Z,95.74
2023-04-28T22:57:06.347Z,95.57
2023-04-28T22:59:23.443Z,96.11
2023-04-28T23:01:40.514Z,95.57
2023-04-28T23:03:57.686Z,95.28
2023-04-28T23:06:15.245Z,95.61
2023-04-28T23:08:32.512Z,95.29
2023-04-28T23:10:49.803Z,95.46
2023-04-28T23:13:07.248Z,95.49
2023-04-28T23:15:24.200Z,94.98
2023-04-28T23:17:41.620Z,94.77
2023-04-28T23:19:58.959Z,95.60
2023-04-28T23:22:16.007Z,94.40
2023-04-28T23:24:33.960Z,95.23
2023-04-28T23:26:50.986Z,95.42
2023-04-28T23:29:08.208Z,95.11
2023-04-28T23:31:25.280Z,95.65
2023-04-28T23:33:42.676Z,95.46
2023-04-28T23:35:59.578Z,94.90
2023-04-28T23:38:16.693Z,94.96
2023-04-28T23:40:34.624Z,95.34
2023-04-28T23:42:53.320Z,95.61
2023-04-28T23:45:10.235Z,95.14
2023-04-28T23:47:27.344Z,95.82
2023-04-28T23:49:44.651Z,95.78
2023-04-28T23:52:01.638Z,94.94
2023-04-28T23:54:19.103Z,95.20
2023-04-28T23:56:36.022Z,94.81
2023-04-28T23:58:53.070Z,95.47
